sensor_id;sensor_type;location;lat;lon;timestamp;P1;durP1;ratioP1;P2;durP2;ratioP2
15968;SDS011;8085;53.472;9.794;2022-12-22T00:01:52;36.60;;;19.07;;
15968;SDS011;8085;53.472;9.794;2022-12-22T00:04:37;35.50;;;19.33;;
15968;SDS011;8085;53.472;9.794;2022-12-22T00:07:31;37.53;;;19.73;;
15968;SDS011;8085;53.472;9.794;2022-12-22T00:10:16;37.93;;;20.50;;
15968;SDS011;8085;53.472;9.794;2022-12-22T00:13:01;33.10;;;19.53;;
15968;SDS011;8085;53.472;9.794;2022-12-22T00:15:46;39.83;;;21.30;;
15968;SDS011;8085;53.472;9.794;2022-12-22T00:18:30;37.10;;;20.83;;
15968;SDS011;8085;53.472;9.794;2022-12-22T00:21:14;40.23;;;19.50;;
15968;SDS011;8085;53.472;9.794;2022-12-22T00:24:00;34.23;;;19.20;;
15968;SDS011;8085;53.472;9.794;2022-12-22T00:26:44;39.37;;;20.73;;
15968;SDS011;8085;53.472;9.794;2022-12-22T00:29:30;36.27;;;19.53;;
15968;SDS011;8085;53.472;9.794;2022-12-22T00:32:19;38.83;;;20.53;;
15968;SDS011;8085;53.472;9.794;2022-12-22T00:35:09;40.33;;;19.03;;
15968;SDS011;8085;53.472;9.794;2022-12-22T00:37:55;38.60;;;19.93;;
15968;SDS011;8085;53.472;9.794;2022-12-22T00:40:40;37.37;;;20.93;;
15968;SDS011;8085;53.472;9.794;2022-12-22T00:43:25;35.90;;;20.40;;
15968;SDS011;8085;53.472;9.794;2022-12-22T00:46:10;39.63;;;20.50;;
15968;SDS011;8085;53.472;9.794;2022-12-22T00:48:57;34.97;;;20.20;;
15968;SDS011;8085;53.472;9.794;2022-12-22T00:51:42;36.00;;;21.93;;
15968;SDS011;8085;53.472;9.794;2022-12-22T00:54:27;36.93;;;20.17;;
15968;SDS011;8085;53.472;9.794;2022-12-22T00:57:15;46.63;;;22.40;;
15968;SDS011;8085;53.472;9.794;2022-12-22T01:00:02;40.33;;;22.87;;
15968;SDS011;8085;53.472;9.794;2022-12-22T01:02:49;42.13;;;22.63;;
15968;SDS011;8085;53.472;9.794;2022-12-22T01:05:33;40.13;;;22.30;;
15968;SDS011;8085;53.472;9.794;2022-12-22T01:08:17;39.77;;;21.70;;
15968;SDS011;8085;53.472;9.794;2022-12-22T01:11:02;43.93;;;22.83;;
15968;SDS011;8085;53.472;9.794;2022-12-22T01:13:47;47.23;;;23.20;;
15968;SDS011;8085;53.472;9.794;2022-12-22T01:16:32;46.00;;;24.20;;
15968;SDS011;8085;53.472;9.794;2022-12-22T01:19:16;42.33;;;23.13;;
15968;SDS011;8085;53.472;9.794;2022-12-22T01:22:00;40.03;;;22.27;;
15968;SDS011;8085;53.472;9.794;2022-12-22T01:24:45;41.80;;;22.87;;
15968;SDS011;8085;53.472;9.794;2022-12-22T01:27:29;39.80;;;22.43;;
15968;SDS011;8085;53.472;9.794;2022-12-22T01:30:15;33.97;;;22.37;;
15968;SDS011;8085;53.472;9.794;2022-12-22T01:32:59;42.13;;;22.60;;
15968;SDS011;8085;53.472;9.794;2022-12-22T01:35:43;35.77;;;21.60;;
15968;SDS011;8085;53.472;9.794;2022-12-22T01:38:28;38.97;;;22.03;;
15968;SDS011;8085;53.472;9.794;2022-12-22T01:41:14;34.43;;;22.23;;
15968;SDS011;8085;53.472;9.794;2022-12-22T01:44:01;33.73;;;20.77;;
15968;SDS011;8085;53.472;9.794;2022-12-22T01:46:49;36.13;;;21.33;;
15968;SDS011;8085;53.472;9.794;2022-12-22T01:49:34;35.37;;;20.50;;
15968;SDS011;8085;53.472;9.794;2022-12-22T01:52:21;32.50;;;19.67;;
15968;SDS011;8085;53.472;9.794;2022-12-22T01:55:08;30.37;;;20.97;;
15968;SDS011;8085;53.472;9.794;2022-12-22T01:57:55;30.60;;;19.93;;
15968;SDS011;8085;53.472;9.794;2022-12-22T02:00:41;31.27;;;19.37;;
15968;SDS011;8085;53.472;9.794;2022-12-22T02:03:27;36.27;;;20.77;;
15968;SDS011;8085;53.472;9.794;2022-12-22T02:06:13;34.53;;;20.80;;
15968;SDS011;8085;53.472;9.794;2022-12-22T02:09:11;29.13;;;18.97;;
15968;SDS011;8085;53.472;9.794;2022-12-22T02:12:07;30.00;;;19.37;;
15968;SDS011;8085;53.472;9.794;2022-12-22T02:15:00;36.20;;;19.87;;
15968;SDS011;8085;53.472;9.794;2022-12-22T02:17:51;31.43;;;18.93;;
15968;SDS011;8085;53.472;9.794;2022-12-22T02:20:48;30.10;;;19.33;;
15968;SDS011;8085;53.472;9.794;2022-12-22T02:23:40;35.20;;;20.07;;
15968;SDS011;8085;53.472;9.794;2022-12-22T02:26:37;33.93;;;19.43;;
15968;SDS011;8085;53.472;9.794;2022-12-22T02:29:26;29.27;;;19.40;;
15968;SDS011;8085;53.472;9.794;2022-12-22T02:32:13;29.13;;;19.13;;
15968;SDS011;8085;53.472;9.794;2022-12-22T02:34:57;32.63;;;19.10;;
15968;SDS011;8085;53.472;9.794;2022-12-22T02:37:44;29.20;;;19.00;;
15968;SDS011;8085;53.472;9.794;2022-12-22T02:40:33;29.50;;;18.17;;
15968;SDS011;8085;53.472;9.794;2022-12-22T02:43:31;26.67;;;17.97;;
15968;SDS011;8085;53.472;9.794;2022-12-22T02:46:27;28.30;;;18.27;;
15968;SDS011;8085;53.472;9.794;2022-12-22T02:49:16;26.90;;;17.20;;
15968;SDS011;8085;53.472;9.794;2022-12-22T02:52:08;29.07;;;18.33;;
15968;SDS011;8085;53.472;9.794;2022-12-22T02:54:58;28.77;;;17.87;;
15968;SDS011;8085;53.472;9.794;2022-12-22T02:57:42;30.97;;;18.93;;
15968;SDS011;8085;53.472;9.794;2022-12-22T03:00:28;29.07;;;17.83;;
15968;SDS011;8085;53.472;9.794;2022-12-22T03:03:12;28.63;;;17.17;;
15968;SDS011;8085;53.472;9.794;2022-12-22T03:05:56;28.00;;;17.90;;
15968;SDS011;8085;53.472;9.794;2022-12-22T03:08:40;29.87;;;18.47;;
15968;SDS011;8085;53.472;9.794;2022-12-22T03:11:25;28.83;;;18.07;;
15968;SDS011;8085;53.472;9.794;2022-12-22T03:14:09;28.40;;;17.80;;
15968;SDS011;8085;53.472;9.794;2022-12-22T03:16:55;28.40;;;18.00;;
15968;SDS011;8085;53.472;9.794;2022-12-22T03:19:39;29.53;;;18.47;;
15968;SDS011;8085;53.472;9.794;2022-12-22T03:22:23;28.73;;;18.43;;
15968;SDS011;8085;53.472;9.794;2022-12-22T03:25:08;34.13;;;18.87;;
15968;SDS011;8085;53.472;9.794;2022-12-22T03:27:52;29.47;;;19.20;;
15968;SDS011;8085;53.472;9.794;2022-12-22T03:30:19;30.83;;;19.07;;
15968;SDS011;8085;53.472;9.794;2022-12-22T03:32:47;35.00;;;19.40;;
15968;SDS011;8085;53.472;9.794;2022-12-22T03:35:14;30.07;;;19.60;;
15968;SDS011;8085;53.472;9.794;2022-12-22T03:37:42;32.87;;;19.53;;
15968;SDS011;8085;53.472;9.794;2022-12-22T03:40:08;30.37;;;19.77;;
15968;SDS011;8085;53.472;9.794;2022-12-22T03:42:36;32.90;;;19.80;;
15968;SDS011;8085;53.472;9.794;2022-12-22T03:45:20;29.10;;;19.83;;
15968;SDS011;8085;53.472;9.794;2022-12-22T03:48:06;34.60;;;20.87;;
15968;SDS011;8085;53.472;9.794;2022-12-22T03:50:32;32.00;;;19.83;;
15968;SDS011;8085;53.472;9.794;2022-12-22T03:52:59;35.43;;;19.93;;
15968;SDS011;8085;53.472;9.794;2022-12-22T03:55:26;32.50;;;19.27;;
15968;SDS011;8085;53.472;9.794;2022-12-22T03:57:53;32.00;;;20.47;;
15968;SDS011;8085;53.472;9.794;2022-12-22T04:00:20;31.77;;;19.30;;
15968;SDS011;8085;53.472;9.794;2022-12-22T04:02:47;30.87;;;19.33;;
15968;SDS011;8085;53.472;9.794;2022-12-22T04:05:15;29.90;;;19.00;;
15968;SDS011;8085;53.472;9.794;2022-12-22T04:07:42;35.33;;;19.37;;
15968;SDS011;8085;53.472;9.794;2022-12-22T04:10:08;32.60;;;19.33;;
15968;SDS011;8085;53.472;9.794;2022-12-22T04:12:53;26.07;;;18.70;;
15968;SDS011;8085;53.472;9.794;2022-12-22T04:15:20;26.37;;;17.60;;
15968;SDS011;8085;53.472;9.794;2022-12-22T04:17:48;26.93;;;17.07;;
15968;SDS011;8085;53.472;9.794;2022-12-22T04:20:16;26.00;;;17.57;;
15968;SDS011;8085;53.472;9.794;2022-12-22T04:22:44;26.27;;;16.57;;
15968;SDS011;8085;53.472;9.794;2022-12-22T04:25:11;23.37;;;16.30;;
15968;SDS011;8085;53.472;9.794;2022-12-22T04:27:39;23.77;;;15.67;;
15968;SDS011;8085;53.472;9.794;2022-12-22T04:30:06;24.07;;;15.83;;
15968;SDS011;8085;53.472;9.794;2022-12-22T04:32:34;22.23;;;15.13;;
15968;SDS011;8085;53.472;9.794;2022-12-22T04:35:01;25.13;;;16.97;;
15968;SDS011;8085;53.472;9.794;2022-12-22T04:37:29;26.63;;;17.00;;
15968;SDS011;8085;53.472;9.794;2022-12-22T04:39:56;26.37;;;16.63;;
15968;SDS011;8085;53.472;9.794;2022-12-22T04:42:23;22.27;;;15.80;;
15968;SDS011;8085;53.472;9.794;2022-12-22T04:44:50;23.73;;;15.87;;
15968;SDS011;8085;53.472;9.794;2022-12-22T04:47:16;23.73;;;15.27;;
15968;SDS011;8085;53.472;9.794;2022-12-22T04:49:43;26.90;;;16.80;;
15968;SDS011;8085;53.472;9.794;2022-12-22T04:52:11;30.83;;;17.47;;
15968;SDS011;8085;53.472;9.794;2022-12-22T04:54:39;27.57;;;17.03;;
15968;SDS011;8085;53.472;9.794;2022-12-22T04:57:06;26.57;;;17.20;;
15968;SDS011;8085;53.472;9.794;2022-12-22T04:59:33;28.37;;;17.90;;
15968;SDS011;8085;53.472;9.794;2022-12-22T05:01:59;30.83;;;17.93;;
15968;SDS011;8085;53.472;9.794;2022-12-22T05:04:26;27.77;;;18.07;;
15968;SDS011;8085;53.472;9.794;2022-12-22T05:06:53;29.67;;;18.37;;
15968;SDS011;8085;53.472;9.794;2022-12-22T05:09:20;33.17;;;19.83;;
15968;SDS011;8085;53.472;9.794;2022-12-22T05:11:48;34.50;;;19.57;;
15968;SDS011;8085;53.472;9.794;2022-12-22T05:14:15;34.17;;;18.83;;
15968;SDS011;8085;53.472;9.794;2022-12-22T05:16:41;37.50;;;19.87;;
15968;SDS011;8085;53.472;9.794;2022-12-22T05:19:08;36.70;;;20.30;;
15968;SDS011;8085;53.472;9.794;2022-12-22T05:21:35;34.47;;;20.23;;
15968;SDS011;8085;53.472;9.794;2022-12-22T05:24:02;40.07;;;20.70;;
15968;SDS011;8085;53.472;9.794;2022-12-22T05:26:29;39.13;;;21.03;;
15968;SDS011;8085;53.472;9.794;2022-12-22T05:28:57;36.47;;;20.57;;
15968;SDS011;8085;53.472;9.794;2022-12-22T05:31:25;38.03;;;21.70;;
15968;SDS011;8085;53.472;9.794;2022-12-22T05:33:51;36.93;;;21.00;;
15968;SDS011;8085;53.472;9.794;2022-12-22T05:36:18;40.93;;;21.07;;
15968;SDS011;8085;53.472;9.794;2022-12-22T05:38:45;39.20;;;22.07;;
15968;SDS011;8085;53.472;9.794;2022-12-22T05:41:15;40.07;;;21.70;;
15968;SDS011;8085;53.472;9.794;2022-12-22T05:43:43;43.03;;;23.13;;
15968;SDS011;8085;53.472;9.794;2022-12-22T05:46:11;40.33;;;22.37;;
15968;SDS011;8085;53.472;9.794;2022-12-22T05:48:38;40.27;;;21.63;;
15968;SDS011;8085;53.472;9.794;2022-12-22T05:51:05;42.07;;;23.20;;
15968;SDS011;8085;53.472;9.794;2022-12-22T05:53:33;42.03;;;23.17;;
15968;SDS011;8085;53.472;9.794;2022-12-22T05:55:59;39.10;;;22.03;;
15968;SDS011;8085;53.472;9.794;2022-12-22T05:58:26;40.43;;;22.10;;
15968;SDS011;8085;53.472;9.794;2022-12-22T06:00:54;37.17;;;22.67;;
15968;SDS011;8085;53.472;9.794;2022-12-22T06:03:24;43.47;;;23.47;;
15968;SDS011;8085;53.472;9.794;2022-12-22T06:05:51;40.97;;;23.60;;
15968;SDS011;8085;53.472;9.794;2022-12-22T06:08:19;47.20;;;24.47;;
15968;SDS011;8085;53.472;9.794;2022-12-22T06:10:46;40.07;;;23.20;;
15968;SDS011;8085;53.472;9.794;2022-12-22T06:13:13;42.93;;;24.13;;
15968;SDS011;8085;53.472;9.794;2022-12-22T06:15:40;40.90;;;23.50;;
15968;SDS011;8085;53.472;9.794;2022-12-22T06:18:06;42.53;;;23.93;;
15968;SDS011;8085;53.472;9.794;2022-12-22T06:20:35;43.67;;;23.83;;
15968;SDS011;8085;53.472;9.794;2022-12-22T06:23:01;41.20;;;23.13;;
15968;SDS011;8085;53.472;9.794;2022-12-22T06:25:28;45.87;;;24.63;;
15968;SDS011;8085;53.472;9.794;2022-12-22T06:27:55;40.93;;;24.43;;
15968;SDS011;8085;53.472;9.794;2022-12-22T06:30:22;39.83;;;23.53;;
15968;SDS011;8085;53.472;9.794;2022-12-22T06:32:49;40.50;;;23.63;;
15968;SDS011;8085;53.472;9.794;2022-12-22T06:35:15;40.70;;;24.27;;
15968;SDS011;8085;53.472;9.794;2022-12-22T06:37:43;37.97;;;22.70;;
15968;SDS011;8085;53.472;9.794;2022-12-22T06:40:10;43.13;;;24.80;;
15968;SDS011;8085;53.472;9.794;2022-12-22T06:42:38;39.30;;;23.80;;
15968;SDS011;8085;53.472;9.794;2022-12-22T06:45:22;42.73;;;24.33;;
15968;SDS011;8085;53.472;9.794;2022-12-22T06:47:48;42.27;;;24.13;;
15968;SDS011;8085;53.472;9.794;2022-12-22T06:50:15;42.07;;;23.97;;
15968;SDS011;8085;53.472;9.794;2022-12-22T06:52:43;43.77;;;24.90;;
15968;SDS011;8085;53.472;9.794;2022-12-22T06:55:10;44.77;;;24.43;;
15968;SDS011;8085;53.472;9.794;2022-12-22T06:57:37;42.63;;;24.23;;
15968;SDS011;8085;53.472;9.794;2022-12-22T07:00:04;38.50;;;23.03;;
15968;SDS011;8085;53.472;9.794;2022-12-22T07:02:32;41.20;;;23.90;;
15968;SDS011;8085;53.472;9.794;2022-12-22T07:04:59;41.43;;;22.83;;
15968;SDS011;8085;53.472;9.794;2022-12-22T07:07:25;45.10;;;24.50;;
15968;SDS011;8085;53.472;9.794;2022-12-22T07:12:31;41.70;;;25.47;;
15968;SDS011;8085;53.472;9.794;2022-12-22T07:14:58;41.37;;;24.03;;
15968;SDS011;8085;53.472;9.794;2022-12-22T07:17:25;43.57;;;24.23;;
15968;SDS011;8085;53.472;9.794;2022-12-22T07:19:52;42.13;;;24.60;;
15968;SDS011;8085;53.472;9.794;2022-12-22T07:22:18;40.63;;;23.80;;
15968;SDS011;8085;53.472;9.794;2022-12-22T07:24:45;40.17;;;22.63;;
15968;SDS011;8085;53.472;9.794;2022-12-22T07:27:12;43.87;;;22.87;;
15968;SDS011;8085;53.472;9.794;2022-12-22T07:29:40;37.30;;;21.57;;
15968;SDS011;8085;53.472;9.794;2022-12-22T07:32:07;38.63;;;22.17;;
15968;SDS011;8085;53.472;9.794;2022-12-22T07:34:34;42.37;;;22.63;;
15968;SDS011;8085;53.472;9.794;2022-12-22T07:37:00;38.93;;;22.17;;
15968;SDS011;8085;53.472;9.794;2022-12-22T07:39:27;44.97;;;22.47;;
15968;SDS011;8085;53.472;9.794;2022-12-22T07:41:54;39.43;;;22.40;;
15968;SDS011;8085;53.472;9.794;2022-12-22T07:44:38;41.57;;;22.73;;
15968;SDS011;8085;53.472;9.794;2022-12-22T07:47:06;36.63;;;20.83;;
15968;SDS011;8085;53.472;9.794;2022-12-22T07:49:33;41.83;;;22.03;;
15968;SDS011;8085;53.472;9.794;2022-12-22T07:52:18;39.70;;;22.10;;
15968;SDS011;8085;53.472;9.794;2022-12-22T07:54:44;41.33;;;21.70;;
15968;SDS011;8085;53.472;9.794;2022-12-22T07:57:11;33.93;;;20.63;;
15968;SDS011;8085;53.472;9.794;2022-12-22T07:59:38;38.47;;;20.63;;
15968;SDS011;8085;53.472;9.794;2022-12-22T08:02:07;39.93;;;20.93;;
15968;SDS011;8085;53.472;9.794;2022-12-22T08:04:36;37.50;;;20.63;;
15968;SDS011;8085;53.472;9.794;2022-12-22T08:07:02;38.23;;;19.83;;
15968;SDS011;8085;53.472;9.794;2022-12-22T08:09:29;40.10;;;21.37;;
15968;SDS011;8085;53.472;9.794;2022-12-22T08:11:56;36.80;;;20.80;;
15968;SDS011;8085;53.472;9.794;2022-12-22T08:14:23;39.50;;;20.20;;
15968;SDS011;8085;53.472;9.794;2022-12-22T08:16:49;38.50;;;21.00;;
15968;SDS011;8085;53.472;9.794;2022-12-22T08:19:17;33.53;;;20.13;;
15968;SDS011;8085;53.472;9.794;2022-12-22T08:21:44;36.97;;;20.47;;
15968;SDS011;8085;53.472;9.794;2022-12-22T08:24:12;40.33;;;20.27;;
15968;SDS011;8085;53.472;9.794;2022-12-22T08:26:39;37.30;;;21.63;;
15968;SDS011;8085;53.472;9.794;2022-12-22T08:29:11;42.87;;;22.13;;
15968;SDS011;8085;53.472;9.794;2022-12-22T08:31:40;41.73;;;21.93;;
15968;SDS011;8085;53.472;9.794;2022-12-22T08:34:08;41.80;;;22.40;;
15968;SDS011;8085;53.472;9.794;2022-12-22T08:36:40;39.27;;;21.40;;
15968;SDS011;8085;53.472;9.794;2022-12-22T08:39:12;41.93;;;23.13;;
15968;SDS011;8085;53.472;9.794;2022-12-22T08:41:41;42.13;;;22.47;;
15968;SDS011;8085;53.472;9.794;2022-12-22T08:44:18;41.53;;;23.10;;
15968;SDS011;8085;53.472;9.794;2022-12-22T08:46:46;39.43;;;21.97;;
15968;SDS011;8085;53.472;9.794;2022-12-22T08:49:13;46.43;;;23.27;;
15968;SDS011;8085;53.472;9.794;2022-12-22T08:51:42;47.23;;;22.70;;
15968;SDS011;8085;53.472;9.794;2022-12-22T08:54:09;43.97;;;23.27;;
15968;SDS011;8085;53.472;9.794;2022-12-22T08:56:36;42.37;;;21.47;;
15968;SDS011;8085;53.472;9.794;2022-12-22T08:59:03;43.50;;;23.13;;
15968;SDS011;8085;53.472;9.794;2022-12-22T09:01:32;42.33;;;21.83;;
15968;SDS011;8085;53.472;9.794;2022-12-22T09:04:00;42.17;;;22.40;;
15968;SDS011;8085;53.472;9.794;2022-12-22T09:06:27;47.60;;;23.30;;
15968;SDS011;8085;53.472;9.794;2022-12-22T09:08:56;45.83;;;23.00;;
15968;SDS011;8085;53.472;9.794;2022-12-22T09:11:25;48.47;;;23.97;;
15968;SDS011;8085;53.472;9.794;2022-12-22T09:13:54;54.23;;;25.43;;
15968;SDS011;8085;53.472;9.794;2022-12-22T09:16:23;55.90;;;26.70;;
15968;SDS011;8085;53.472;9.794;2022-12-22T09:18:51;54.47;;;26.40;;
15968;SDS011;8085;53.472;9.794;2022-12-22T09:21:19;54.90;;;26.50;;
15968;SDS011;8085;53.472;9.794;2022-12-22T09:23:46;54.57;;;26.37;;
15968;SDS011;8085;53.472;9.794;2022-12-22T09:26:16;59.03;;;27.50;;
15968;SDS011;8085;53.472;9.794;2022-12-22T09:28:44;59.03;;;27.73;;
15968;SDS011;8085;53.472;9.794;2022-12-22T09:31:11;60.23;;;28.07;;
15968;SDS011;8085;53.472;9.794;2022-12-22T09:33:39;63.67;;;29.80;;
15968;SDS011;8085;53.472;9.794;2022-12-22T09:36:06;63.17;;;30.20;;
15968;SDS011;8085;53.472;9.794;2022-12-22T09:38:34;65.47;;;29.20;;
15968;SDS011;8085;53.472;9.794;2022-12-22T09:41:05;63.10;;;29.70;;
15968;SDS011;8085;53.472;9.794;2022-12-22T09:43:34;64.97;;;31.20;;
15968;SDS011;8085;53.472;9.794;2022-12-22T09:46:02;72.93;;;31.00;;
15968;SDS011;8085;53.472;9.794;2022-12-22T09:48:32;70.30;;;31.13;;
15968;SDS011;8085;53.472;9.794;2022-12-22T09:51:01;70.03;;;31.83;;
15968;SDS011;8085;53.472;9.794;2022-12-22T09:53:28;68.17;;;30.80;;
15968;SDS011;8085;53.472;9.794;2022-12-22T09:55:56;67.13;;;31.50;;
15968;SDS011;8085;53.472;9.794;2022-12-22T09:58:24;86.23;;;35.60;;
15968;SDS011;8085;53.472;9.794;2022-12-22T10:00:56;75.87;;;32.30;;
15968;SDS011;8085;53.472;9.794;2022-12-22T10:03:30;69.27;;;31.57;;
15968;SDS011;8085;53.472;9.794;2022-12-22T10:06:04;75.50;;;32.93;;
15968;SDS011;8085;53.472;9.794;2022-12-22T10:08:36;72.97;;;33.43;;
15968;SDS011;8085;53.472;9.794;2022-12-22T10:11:04;76.70;;;33.57;;
15968;SDS011;8085;53.472;9.794;2022-12-22T10:13:33;79.60;;;33.33;;
15968;SDS011;8085;53.472;9.794;2022-12-22T10:16:01;73.63;;;33.93;;
15968;SDS011;8085;53.472;9.794;2022-12-22T10:18:44;79.10;;;33.77;;
15968;SDS011;8085;53.472;9.794;2022-12-22T10:21:21;77.37;;;32.70;;
15968;SDS011;8085;53.472;9.794;2022-12-22T10:23:48;76.80;;;33.20;;
15968;SDS011;8085;53.472;9.794;2022-12-22T10:26:16;77.73;;;32.43;;
15968;SDS011;8085;53.472;9.794;2022-12-22T10:28:46;71.07;;;31.80;;
15968;SDS011;8085;53.472;9.794;2022-12-22T10:31:18;66.67;;;29.60;;
15968;SDS011;8085;53.472;9.794;2022-12-22T10:33:47;71.73;;;30.60;;
15968;SDS011;8085;53.472;9.794;2022-12-22T10:36:19;66.63;;;29.10;;
15968;SDS011;8085;53.472;9.794;2022-12-22T10:41:35;62.13;;;29.33;;
15968;SDS011;8085;53.472;9.794;2022-12-22T10:44:06;60.97;;;29.53;;
15968;SDS011;8085;53.472;9.794;2022-12-22T10:46:39;63.03;;;28.30;;
15968;SDS011;8085;53.472;9.794;2022-12-22T10:49:09;60.83;;;27.93;;
15968;SDS011;8085;53.472;9.794;2022-12-22T10:51:44;56.77;;;26.53;;
15968;SDS011;8085;53.472;9.794;2022-12-22T10:54:23;52.47;;;25.53;;
15968;SDS011;8085;53.472;9.794;2022-12-22T10:56:59;51.97;;;25.47;;
15968;SDS011;8085;53.472;9.794;2022-12-22T10:59:27;44.97;;;23.53;;
15968;SDS011;8085;53.472;9.794;2022-12-22T11:01:55;52.67;;;24.67;;
15968;SDS011;8085;53.472;9.794;2022-12-22T11:04:53;45.20;;;23.93;;
15968;SDS011;8085;53.472;9.794;2022-12-22T11:07:25;48.10;;;24.93;;
15968;SDS011;8085;53.472;9.794;2022-12-22T11:09:55;40.70;;;22.93;;
15968;SDS011;8085;53.472;9.794;2022-12-22T11:12:24;44.70;;;23.57;;
15968;SDS011;8085;53.472;9.794;2022-12-22T11:15:01;41.90;;;22.70;;
15968;SDS011;8085;53.472;9.794;2022-12-22T11:17:40;44.30;;;22.83;;
15968;SDS011;8085;53.472;9.794;2022-12-22T11:20:23;40.00;;;22.33;;
15968;SDS011;8085;53.472;9.794;2022-12-22T11:22:59;42.03;;;23.13;;
15968;SDS011;8085;53.472;9.794;2022-12-22T11:25:35;40.53;;;22.47;;
15968;SDS011;8085;53.472;9.794;2022-12-22T11:28:16;41.83;;;23.00;;
15968;SDS011;8085;53.472;9.794;2022-12-22T11:30:54;41.23;;;22.63;;
15968;SDS011;8085;53.472;9.794;2022-12-22T11:33:37;39.20;;;22.80;;
15968;SDS011;8085;53.472;9.794;2022-12-22T11:36:12;36.23;;;20.97;;
15968;SDS011;8085;53.472;9.794;2022-12-22T11:38:49;35.80;;;21.73;;
15968;SDS011;8085;53.472;9.794;2022-12-22T11:41:35;36.60;;;20.37;;
15968;SDS011;8085;53.472;9.794;2022-12-22T11:44:22;32.73;;;19.43;;
15968;SDS011;8085;53.472;9.794;2022-12-22T11:47:01;27.47;;;17.87;;
15968;SDS011;8085;53.472;9.794;2022-12-22T11:49:54;26.23;;;17.10;;
15968;SDS011;8085;53.472;9.794;2022-12-22T11:52:44;27.00;;;16.40;;
15968;SDS011;8085;53.472;9.794;2022-12-22T11:55:23;25.10;;;16.87;;
15968;SDS011;8085;53.472;9.794;2022-12-22T11:58:02;25.10;;;15.80;;
15968;SDS011;8085;53.472;9.794;2022-12-22T12:00:39;24.97;;;16.03;;
15968;SDS011;8085;53.472;9.794;2022-12-22T12:06:26;28.27;;;17.33;;
15968;SDS011;8085;53.472;9.794;2022-12-22T12:09:09;27.87;;;17.17;;
15968;SDS011;8085;53.472;9.794;2022-12-22T12:11:48;22.23;;;15.27;;
15968;SDS011;8085;53.472;9.794;2022-12-22T12:14:22;23.47;;;15.77;;
15968;SDS011;8085;53.472;9.794;2022-12-22T12:16:56;23.43;;;15.40;;
15968;SDS011;8085;53.472;9.794;2022-12-22T12:19:44;19.50;;;14.37;;
15968;SDS011;8085;53.472;9.794;2022-12-22T12:22:50;23.93;;;14.17;;
15968;SDS011;8085;53.472;9.794;2022-12-22T12:25:27;23.80;;;14.77;;
15968;SDS011;8085;53.472;9.794;2022-12-22T12:28:03;21.30;;;14.70;;
15968;SDS011;8085;53.472;9.794;2022-12-22T12:30:42;19.80;;;13.50;;
15968;SDS011;8085;53.472;9.794;2022-12-22T12:33:16;23.17;;;14.00;;
15968;SDS011;8085;53.472;9.794;2022-12-22T12:35:50;20.97;;;13.47;;
15968;SDS011;8085;53.472;9.794;2022-12-22T12:38:28;22.07;;;14.00;;
15968;SDS011;8085;53.472;9.794;2022-12-22T12:40:59;23.17;;;13.07;;
15968;SDS011;8085;53.472;9.794;2022-12-22T12:43:32;21.60;;;13.50;;
15968;SDS011;8085;53.472;9.794;2022-12-22T12:45:59;20.20;;;13.63;;
15968;SDS011;8085;53.472;9.794;2022-12-22T12:48:47;22.97;;;14.30;;
15968;SDS011;8085;53.472;9.794;2022-12-22T12:59:52;22.23;;;13.93;;
15968;SDS011;8085;53.472;9.794;2022-12-22T13:05:10;22.47;;;11.57;;
15968;SDS011;8085;53.472;9.794;2022-12-22T13:08:04;20.17;;;10.50;;
15968;SDS011;8085;53.472;9.794;2022-12-22T13:13:59;16.37;;;9.33;;
15968;SDS011;8085;53.472;9.794;2022-12-22T13:16:34;17.37;;;9.20;;
15968;SDS011;8085;53.472;9.794;2022-12-22T13:19:04;14.03;;;9.17;;
15968;SDS011;8085;53.472;9.794;2022-12-22T13:21:40;16.70;;;9.00;;
15968;SDS011;8085;53.472;9.794;2022-12-22T13:24:12;16.53;;;8.83;;
15968;SDS011;8085;53.472;9.794;2022-12-22T13:26:47;16.63;;;8.87;;
15968;SDS011;8085;53.472;9.794;2022-12-22T13:29:22;23.50;;;9.47;;
15968;SDS011;8085;53.472;9.794;2022-12-22T13:31:54;17.77;;;9.20;;
15968;SDS011;8085;53.472;9.794;2022-12-22T13:34:28;15.53;;;9.43;;
15968;SDS011;8085;53.472;9.794;2022-12-22T13:37:17;19.60;;;10.30;;
15968;SDS011;8085;53.472;9.794;2022-12-22T13:40:05;18.90;;;10.43;;
15968;SDS011;8085;53.472;9.794;2022-12-22T13:42:36;16.67;;;9.63;;
15968;SDS011;8085;53.472;9.794;2022-12-22T13:45:10;16.73;;;9.27;;
15968;SDS011;8085;53.472;9.794;2022-12-22T13:47:53;15.47;;;9.67;;
15968;SDS011;8085;53.472;9.794;2022-12-22T13:50:21;17.50;;;9.43;;
15968;SDS011;8085;53.472;9.794;2022-12-22T13:52:50;16.80;;;9.50;;
15968;SDS011;8085;53.472;9.794;2022-12-22T13:55:22;18.90;;;10.07;;
15968;SDS011;8085;53.472;9.794;2022-12-22T13:57:52;18.13;;;10.37;;
15968;SDS011;8085;53.472;9.794;2022-12-22T14:00:21;17.37;;;9.37;;
15968;SDS011;8085;53.472;9.794;2022-12-22T14:02:50;16.53;;;9.40;;
15968;SDS011;8085;53.472;9.794;2022-12-22T14:05:18;17.77;;;10.10;;
15968;SDS011;8085;53.472;9.794;2022-12-22T14:07:58;18.73;;;10.30;;
15968;SDS011;8085;53.472;9.794;2022-12-22T14:10:27;16.50;;;10.17;;
15968;SDS011;8085;53.472;9.794;2022-12-22T14:13:05;16.50;;;10.13;;
15968;SDS011;8085;53.472;9.794;2022-12-22T14:15:37;19.63;;;10.90;;
15968;SDS011;8085;53.472;9.794;2022-12-22T14:18:04;18.63;;;10.30;;
15968;SDS011;8085;53.472;9.794;2022-12-22T14:20:31;19.67;;;10.93;;
15968;SDS011;8085;53.472;9.794;2022-12-22T14:23:00;19.33;;;9.80;;
15968;SDS011;8085;53.472;9.794;2022-12-22T14:25:30;20.53;;;10.13;;
15968;SDS011;8085;53.472;9.794;2022-12-22T14:27:59;25.07;;;10.47;;
15968;SDS011;8085;53.472;9.794;2022-12-22T14:30:29;20.67;;;10.27;;
15968;SDS011;8085;53.472;9.794;2022-12-22T14:33:13;21.70;;;10.00;;
15968;SDS011;8085;53.472;9.794;2022-12-22T14:35:41;22.20;;;10.10;;
15968;SDS011;8085;53.472;9.794;2022-12-22T14:38:21;17.70;;;9.83;;
15968;SDS011;8085;53.472;9.794;2022-12-22T14:40:49;22.30;;;10.87;;
15968;SDS011;8085;53.472;9.794;2022-12-22T14:43:23;16.50;;;9.60;;
15968;SDS011;8085;53.472;9.794;2022-12-22T14:46:00;16.50;;;10.60;;
15968;SDS011;8085;53.472;9.794;2022-12-22T14:48:31;19.43;;;10.53;;
15968;SDS011;8085;53.472;9.794;2022-12-22T14:50:59;19.63;;;10.90;;
15968;SDS011;8085;53.472;9.794;2022-12-22T14:53:29;20.47;;;10.87;;
15968;SDS011;8085;53.472;9.794;2022-12-22T14:56:02;25.30;;;12.33;;
15968;SDS011;8085;53.472;9.794;2022-12-22T14:58:30;26.00;;;11.93;;
15968;SDS011;8085;53.472;9.794;2022-12-22T15:01:14;22.50;;;12.40;;
15968;SDS011;8085;53.472;9.794;2022-12-22T15:03:55;21.93;;;12.70;;
15968;SDS011;8085;53.472;9.794;2022-12-22T15:06:33;27.83;;;13.07;;
15968;SDS011;8085;53.472;9.794;2022-12-22T15:09:06;25.10;;;12.77;;
15968;SDS011;8085;53.472;9.794;2022-12-22T15:11:54;24.13;;;13.57;;
15968;SDS011;8085;53.472;9.794;2022-12-22T15:14:29;25.37;;;12.97;;
15968;SDS011;8085;53.472;9.794;2022-12-22T15:17:01;30.27;;;13.93;;
15968;SDS011;8085;53.472;9.794;2022-12-22T15:19:30;27.47;;;13.40;;
15968;SDS011;8085;53.472;9.794;2022-12-22T15:21:58;28.10;;;14.07;;
15968;SDS011;8085;53.472;9.794;2022-12-22T15:24:25;25.63;;;13.37;;
15968;SDS011;8085;53.472;9.794;2022-12-22T15:26:53;25.67;;;13.50;;
15968;SDS011;8085;53.472;9.794;2022-12-22T15:29:20;22.40;;;12.50;;
15968;SDS011;8085;53.472;9.794;2022-12-22T15:31:47;24.23;;;12.73;;
15968;SDS011;8085;53.472;9.794;2022-12-22T15:34:17;23.87;;;11.70;;
15968;SDS011;8085;53.472;9.794;2022-12-22T15:36:48;25.70;;;12.17;;
15968;SDS011;8085;53.472;9.794;2022-12-22T15:39:16;23.83;;;12.73;;
15968;SDS011;8085;53.472;9.794;2022-12-22T15:41:44;24.53;;;12.57;;